»·PEaware :: N654SW KTUS-KNYL

N654SW :: KTUS-KNYL

FLIGHT INFORMATION

Flight Status: Arrived
Operator: Privately registered:
United States
More flights under this callsign
Pilot: Sergei F. (8485)
Aircraft: BOEING 737-300
(B733)
More flights by this aircraft type
Origin: KTUS Tucson Intl
United States
Destination: KNYL Yuma MCAS/Yuma Intl
United States
More flights between these airports :: More routes between these airports
Route: BURRO4 GBN V66 BZA
File this flight plan on PilotEdge
Remarks:
Altitude:
(Current/Filed)
26,000ft
Speed:
(Current/Filed)
400kts
Departed: 19-Sep-20 08:24 PM
Arrived: 19-Sep-20 09:05 PM
Distance/Time
Traveled:
188nm/0:41
Distance/Time
To Go:
Arrived

Flight Plot

Page will automatically refresh every two minutes.

Flight plan parsing failed; only flown route is shown


Map Options




Map Legend


Flown Route
Filed Route
Departure Airport
Arrival Airport
Navaid (VOR, NDB)
Fix

Horizontal Profiles

Position Reports

Time Latitude Longitude Heading Altitude Ground
Speed
19-Sep-20 19:56 32.118638 -110.937214 40 2603ft 0kts
19-Sep-20 19:57 32.118638 -110.937214 40 2603ft 0kts
19-Sep-20 19:58 32.118638 -110.937214 40 2603ft 0kts
19-Sep-20 20:00 32.118638 -110.937214 40 2603ft 0kts
19-Sep-20 20:01 32.118638 -110.937214 40 2603ft 0kts
19-Sep-20 20:02 32.118638 -110.937214 40 2603ft 0kts
19-Sep-20 20:03 32.118638 -110.937214 40 2603ft 0kts
19-Sep-20 20:04 32.118638 -110.937214 40 2603ft 0kts
19-Sep-20 20:05 32.118638 -110.937214 40 2603ft 0kts
19-Sep-20 20:06 32.118638 -110.937214 40 2603ft 0kts
19-Sep-20 20:07 32.118638 -110.937214 40 2603ft 0kts
19-Sep-20 20:08 32.118638 -110.937214 40 2603ft 0kts
19-Sep-20 20:09 32.118638 -110.937214 40 2603ft 0kts
19-Sep-20 20:10 32.118441 -110.937410 40 2604ft 2kts
19-Sep-20 20:11 32.117969 -110.937448 317 2605ft 0kts
19-Sep-20 20:12 32.117919 -110.937386 313 2605ft 0kts
19-Sep-20 20:13 32.117919 -110.937386 313 2605ft 0kts
19-Sep-20 20:14 32.117919 -110.937386 313 2605ft 0kts
19-Sep-20 20:15 32.117921 -110.937388 313 2605ft 0kts
19-Sep-20 20:16 32.119015 -110.938720 312 2601ft 6kts
19-Sep-20 20:16 32.118753 -110.939930 291 2599ft 7kts
19-Sep-20 20:18 32.121829 -110.943567 315 2587ft 16kts
19-Sep-20 20:19 32.123856 -110.945973 312 2579ft 5kts
19-Sep-20 20:19 32.124145 -110.946687 229 2578ft 3kts
19-Sep-20 20:20 32.123958 -110.946916 225 2578ft 0kts
19-Sep-20 20:22 32.123893 -110.946994 225 2578ft 3kts
19-Sep-20 20:22 32.123150 -110.947663 150 2578ft 2kts
19-Sep-20 20:23 32.118057 -110.941668 134 2597ft 126kts
19-Sep-20 20:24 32.087432 -110.903901 130 4480ft 177kts
19-Sep-20 20:25 32.043614 -110.867622 182 6288ft 237kts
19-Sep-20 20:26 31.987341 -110.919088 223 8368ft 277kts
19-Sep-20 20:27 31.982911 -111.002172 299 10673ft 294kts
19-Sep-20 20:28 32.024858 -111.086448 299 13478ft 308kts
19-Sep-20 20:29 32.072407 -111.182611 299 15780ft 354kts
19-Sep-20 20:30 32.137412 -111.272532 311 16993ft 361kts
19-Sep-20 20:31 32.204650 -111.360188 310 18759ft 365kts
19-Sep-20 20:32 32.273381 -111.450085 310 21082ft 373kts
19-Sep-20 20:33 32.332840 -111.551535 302 23410ft 380kts
19-Sep-20 20:34 32.392497 -111.656950 301 25696ft 392kts
19-Sep-20 20:35 32.452974 -111.764735 301 25930ft 393kts
19-Sep-20 20:36 32.513271 -111.872317 301 25900ft 393kts
19-Sep-20 20:37 32.573452 -111.979989 301 25899ft 393kts
19-Sep-20 20:38 32.633800 -112.088273 301 25900ft 393kts
19-Sep-20 20:39 32.694097 -112.196769 301 25870ft 393kts
19-Sep-20 20:40 32.754288 -112.305396 301 25837ft 394kts
19-Sep-20 20:41 32.814213 -112.413862 301 25809ft 396kts
19-Sep-20 20:42 32.875012 -112.524225 301 25826ft 398kts
19-Sep-20 20:43 32.935364 -112.634101 301 25827ft 397kts
19-Sep-20 20:44 32.947978 -112.757204 258 25821ft 398kts
19-Sep-20 20:45 32.927963 -112.886360 261 25829ft 395kts
19-Sep-20 20:46 32.910400 -113.015617 260 25827ft 395kts
19-Sep-20 20:47 32.892804 -113.144298 260 25828ft 395kts
19-Sep-20 20:48 32.875025 -113.273353 260 25137ft 397kts
19-Sep-20 20:49 32.856983 -113.403311 260 23076ft 403kts
19-Sep-20 20:50 32.838346 -113.536545 259 20960ft 412kts
19-Sep-20 20:51 32.819284 -113.671793 259 18725ft 422kts
19-Sep-20 20:52 32.799762 -113.806857 259 16406ft 397kts
19-Sep-20 20:53 32.782097 -113.930315 259 14196ft 358kts
19-Sep-20 20:54 32.770365 -114.038441 264 12720ft 310kts
19-Sep-20 20:55 32.762427 -114.136673 264 10906ft 288kts
19-Sep-20 20:56 32.755314 -114.225899 264 9629ft 254kts
19-Sep-20 20:57 32.749150 -114.305650 264 8023ft 241kts
19-Sep-20 20:58 32.743440 -114.384143 265 6234ft 226kts
19-Sep-20 20:59 32.740358 -114.452266 269 4891ft 194kts
19-Sep-20 21:00 32.736418 -114.509775 250 3419ft 143kts
19-Sep-20 21:01 32.713525 -114.543459 221 1886ft 129kts
19-Sep-20 21:02 32.687251 -114.571511 224 956ft 127kts
19-Sep-20 21:03 32.662269 -114.600164 225 223ft 122kts
19-Sep-20 21:04 32.649432 -114.614900 224 194ft 33kts
19-Sep-20 21:05 32.644938 -114.619706 158 197ft 6kts
19-Sep-20 21:06 32.643309 -114.617763 134 197ft 5kts
19-Sep-20 21:07 32.643151 -114.617571 134 197ft 0kts
19-Sep-20 21:08 32.643151 -114.617571 134 197ft 0kts
19-Sep-20 21:09 32.643648 -114.616073 44 197ft 11kts
19-Sep-20 21:10 32.647174 -114.612026 44 194ft 20kts
19-Sep-20 21:11 32.651226 -114.607380 44 191ft 21kts
19-Sep-20 21:12 32.654609 -114.603858 7 191ft 13kts
19-Sep-20 21:13 32.659403 -114.603908 0 194ft 21kts
19-Sep-20 21:14 32.666094 -114.604023 359 197ft 20kts
19-Sep-20 21:15 32.667247 -114.602507 89 200ft 9kts
19-Sep-20 21:16 32.667312 -114.599606 77 201ft 3kts
19-Sep-20 21:17 32.667739 -114.599435 1 201ft 2kts
19-Sep-20 21:18 32.667991 -114.599430 1 202ft 0kts

Navigation Log

Ident Type
Flight plan parsing failed, navigation log unavailable